sensor_id;sensor_type;location;lat;lon;timestamp;P1;durP1;ratioP1;P2;durP2;ratioP2
78288;SDS011;67539;48.752;12.922;2023-04-29T00:01:59;18.87;;;16.50;;
78288;SDS011;67539;48.752;12.922;2023-04-29T00:04:27;17.93;;;15.53;;
78288;SDS011;67539;48.752;12.922;2023-04-29T00:06:56;18.80;;;14.33;;
78288;SDS011;67539;48.752;12.922;2023-04-29T00:09:24;18.73;;;16.20;;
78288;SDS011;67539;48.752;12.922;2023-04-29T00:11:52;19.17;;;16.33;;
78288;SDS011;67539;48.752;12.922;2023-04-29T00:14:21;17.37;;;15.47;;
78288;SDS011;67539;48.752;12.922;2023-04-29T00:16:49;17.00;;;15.20;;
78288;SDS011;67539;48.752;12.922;2023-04-29T00:19:18;17.70;;;15.70;;
78288;SDS011;67539;48.752;12.922;2023-04-29T00:21:46;16.93;;;15.13;;
78288;SDS011;67539;48.752;12.922;2023-04-29T00:24:14;16.77;;;15.10;;
78288;SDS011;67539;48.752;12.922;2023-04-29T00:26:42;15.63;;;14.13;;
78288;SDS011;67539;48.752;12.922;2023-04-29T00:29:10;16.30;;;14.10;;
78288;SDS011;67539;48.752;12.922;2023-04-29T00:31:40;15.30;;;13.63;;
78288;SDS011;67539;48.752;12.922;2023-04-29T00:34:08;14.97;;;13.30;;
78288;SDS011;67539;48.752;12.922;2023-04-29T00:36:36;15.23;;;13.63;;
78288;SDS011;67539;48.752;12.922;2023-04-29T00:39:04;16.07;;;14.47;;
78288;SDS011;67539;48.752;12.922;2023-04-29T00:41:33;14.93;;;13.33;;
78288;SDS011;67539;48.752;12.922;2023-04-29T00:44:01;16.07;;;14.47;;
78288;SDS011;67539;48.752;12.922;2023-04-29T00:46:29;17.50;;;14.97;;
78288;SDS011;67539;48.752;12.922;2023-04-29T00:49:00;17.00;;;14.63;;
78288;SDS011;67539;48.752;12.922;2023-04-29T00:51:29;17.03;;;15.20;;
78288;SDS011;67539;48.752;12.922;2023-04-29T00:53:58;16.83;;;15.03;;
78288;SDS011;67539;48.752;12.922;2023-04-29T00:56:27;17.77;;;15.87;;
78288;SDS011;67539;48.752;12.922;2023-04-29T00:58:58;16.50;;;14.70;;
78288;SDS011;67539;48.752;12.922;2023-04-29T01:01:28;16.73;;;14.87;;
78288;SDS011;67539;48.752;12.922;2023-04-29T01:03:57;17.37;;;15.47;;
78288;SDS011;67539;48.752;12.922;2023-04-29T01:06:30;16.67;;;14.87;;
78288;SDS011;67539;48.752;12.922;2023-04-29T01:09:13;17.53;;;15.57;;
78288;SDS011;67539;48.752;12.922;2023-04-29T01:11:54;17.33;;;15.47;;
78288;SDS011;67539;48.752;12.922;2023-04-29T01:14:32;17.80;;;15.20;;
78288;SDS011;67539;48.752;12.922;2023-04-29T01:17:04;18.77;;;15.87;;
78288;SDS011;67539;48.752;12.922;2023-04-29T01:19:42;19.80;;;17.37;;
78288;SDS011;67539;48.752;12.922;2023-04-29T01:22:13;19.00;;;16.33;;
78288;SDS011;67539;48.752;12.922;2023-04-29T01:24:44;17.97;;;15.50;;
78288;SDS011;67539;48.752;12.922;2023-04-29T01:27:16;17.33;;;15.43;;
78288;SDS011;67539;48.752;12.922;2023-04-29T01:29:55;19.60;;;16.23;;
78288;SDS011;67539;48.752;12.922;2023-04-29T01:32:31;17.57;;;15.70;;
78288;SDS011;67539;48.752;12.922;2023-04-29T01:35:10;22.27;;;17.03;;
78288;SDS011;67539;48.752;12.922;2023-04-29T01:37:48;17.53;;;15.23;;
78288;SDS011;67539;48.752;12.922;2023-04-29T01:40:24;17.90;;;15.93;;
78288;SDS011;67539;48.752;12.922;2023-04-29T01:43:19;17.60;;;15.10;;
78288;SDS011;67539;48.752;12.922;2023-04-29T01:45:50;19.50;;;16.00;;
78288;SDS011;67539;48.752;12.922;2023-04-29T01:48:21;17.50;;;15.30;;
78288;SDS011;67539;48.752;12.922;2023-04-29T01:50:51;17.27;;;15.40;;
78288;SDS011;67539;48.752;12.922;2023-04-29T01:53:19;16.10;;;14.47;;
78288;SDS011;67539;48.752;12.922;2023-04-29T01:55:49;18.33;;;15.93;;
78288;SDS011;67539;48.752;12.922;2023-04-29T01:58:24;18.70;;;16.40;;
78288;SDS011;67539;48.752;12.922;2023-04-29T02:01:06;21.90;;;15.87;;
78288;SDS011;67539;48.752;12.922;2023-04-29T02:03:35;16.47;;;14.40;;
78288;SDS011;67539;48.752;12.922;2023-04-29T02:06:07;18.30;;;14.80;;
78288;SDS011;67539;48.752;12.922;2023-04-29T02:08:35;15.90;;;13.60;;
78288;SDS011;67539;48.752;12.922;2023-04-29T02:11:05;17.03;;;15.27;;
78288;SDS011;67539;48.752;12.922;2023-04-29T02:13:36;15.73;;;14.03;;
78288;SDS011;67539;48.752;12.922;2023-04-29T02:16:07;16.70;;;14.20;;
78288;SDS011;67539;48.752;12.922;2023-04-29T02:18:40;16.60;;;14.53;;
78288;SDS011;67539;48.752;12.922;2023-04-29T02:21:08;16.40;;;14.37;;
78288;SDS011;67539;48.752;12.922;2023-04-29T02:23:37;17.23;;;14.67;;
78288;SDS011;67539;48.752;12.922;2023-04-29T02:26:07;17.20;;;15.40;;
78288;SDS011;67539;48.752;12.922;2023-04-29T02:28:36;16.60;;;14.40;;
78288;SDS011;67539;48.752;12.922;2023-04-29T02:31:04;16.70;;;14.63;;
78288;SDS011;67539;48.752;12.922;2023-04-29T02:33:32;16.20;;;14.50;;
78288;SDS011;67539;48.752;12.922;2023-04-29T02:36:00;19.27;;;16.20;;
78288;SDS011;67539;48.752;12.922;2023-04-29T02:38:29;15.93;;;14.30;;
78288;SDS011;67539;48.752;12.922;2023-04-29T02:40:57;16.33;;;14.57;;
78288;SDS011;67539;48.752;12.922;2023-04-29T02:43:26;16.73;;;14.93;;
78288;SDS011;67539;48.752;12.922;2023-04-29T02:45:57;15.47;;;13.53;;
78288;SDS011;67539;48.752;12.922;2023-04-29T02:48:27;16.13;;;14.10;;
78288;SDS011;67539;48.752;12.922;2023-04-29T02:50:55;16.90;;;14.67;;
78288;SDS011;67539;48.752;12.922;2023-04-29T02:53:23;17.00;;;15.30;;
78288;SDS011;67539;48.752;12.922;2023-04-29T02:55:51;17.83;;;14.30;;
78288;SDS011;67539;48.752;12.922;2023-04-29T02:58:19;18.03;;;15.00;;
78288;SDS011;67539;48.752;12.922;2023-04-29T03:00:48;16.93;;;14.40;;
78288;SDS011;67539;48.752;12.922;2023-04-29T03:03:17;17.50;;;15.60;;
78288;SDS011;67539;48.752;12.922;2023-04-29T03:05:45;17.63;;;14.97;;
78288;SDS011;67539;48.752;12.922;2023-04-29T03:08:13;15.00;;;13.40;;
78288;SDS011;67539;48.752;12.922;2023-04-29T03:10:41;14.63;;;12.73;;
78288;SDS011;67539;48.752;12.922;2023-04-29T03:13:10;13.13;;;11.80;;
78288;SDS011;67539;48.752;12.922;2023-04-29T03:15:38;13.50;;;12.10;;
78288;SDS011;67539;48.752;12.922;2023-04-29T03:18:07;14.07;;;12.43;;
78288;SDS011;67539;48.752;12.922;2023-04-29T03:20:36;12.37;;;10.90;;
78288;SDS011;67539;48.752;12.922;2023-04-29T03:23:04;13.80;;;12.03;;
78288;SDS011;67539;48.752;12.922;2023-04-29T03:25:32;12.40;;;11.10;;
78288;SDS011;67539;48.752;12.922;2023-04-29T03:28:02;12.07;;;10.77;;
78288;SDS011;67539;48.752;12.922;2023-04-29T03:30:31;11.87;;;10.67;;
78288;SDS011;67539;48.752;12.922;2023-04-29T03:32:59;11.60;;;10.50;;
78288;SDS011;67539;48.752;12.922;2023-04-29T03:35:30;12.43;;;10.67;;
78288;SDS011;67539;48.752;12.922;2023-04-29T03:38:21;11.17;;;10.07;;
78288;SDS011;67539;48.752;12.922;2023-04-29T03:40:52;12.90;;;11.20;;
78288;SDS011;67539;48.752;12.922;2023-04-29T03:43:20;11.50;;;10.40;;
78288;SDS011;67539;48.752;12.922;2023-04-29T03:45:48;12.83;;;10.90;;
78288;SDS011;67539;48.752;12.922;2023-04-29T03:48:20;12.40;;;10.87;;
78288;SDS011;67539;48.752;12.922;2023-04-29T03:50:49;13.70;;;10.97;;
78288;SDS011;67539;48.752;12.922;2023-04-29T03:53:17;11.83;;;10.73;;
78288;SDS011;67539;48.752;12.922;2023-04-29T03:55:46;12.30;;;11.10;;
78288;SDS011;67539;48.752;12.922;2023-04-29T03:58:15;12.27;;;11.07;;
78288;SDS011;67539;48.752;12.922;2023-04-29T04:00:43;11.73;;;10.57;;
78288;SDS011;67539;48.752;12.922;2023-04-29T04:03:17;11.20;;;10.10;;
78288;SDS011;67539;48.752;12.922;2023-04-29T04:05:46;12.60;;;11.30;;
78288;SDS011;67539;48.752;12.922;2023-04-29T04:08:16;12.73;;;11.43;;
78288;SDS011;67539;48.752;12.922;2023-04-29T04:10:57;12.20;;;11.00;;
78288;SDS011;67539;48.752;12.922;2023-04-29T04:13:38;11.60;;;10.37;;
78288;SDS011;67539;48.752;12.922;2023-04-29T04:16:06;12.27;;;10.97;;
78288;SDS011;67539;48.752;12.922;2023-04-29T04:18:36;11.00;;;9.63;;
78288;SDS011;67539;48.752;12.922;2023-04-29T04:21:05;10.70;;;9.60;;
78288;SDS011;67539;48.752;12.922;2023-04-29T04:23:36;10.37;;;9.23;;
78288;SDS011;67539;48.752;12.922;2023-04-29T04:26:08;9.20;;;8.30;;
78288;SDS011;67539;48.752;12.922;2023-04-29T04:28:54;11.10;;;9.93;;
78288;SDS011;67539;48.752;12.922;2023-04-29T04:31:43;9.33;;;8.43;;
78288;SDS011;67539;48.752;12.922;2023-04-29T04:34:13;9.27;;;8.47;;
78288;SDS011;67539;48.752;12.922;2023-04-29T04:36:44;8.63;;;7.77;;
78288;SDS011;67539;48.752;12.922;2023-04-29T04:39:13;9.23;;;8.33;;
78288;SDS011;67539;48.752;12.922;2023-04-29T04:41:41;8.70;;;7.90;;
78288;SDS011;67539;48.752;12.922;2023-04-29T04:44:10;9.60;;;8.60;;
78288;SDS011;67539;48.752;12.922;2023-04-29T04:46:49;10.47;;;9.40;;
78288;SDS011;67539;48.752;12.922;2023-04-29T04:49:32;9.10;;;8.00;;
78288;SDS011;67539;48.752;12.922;2023-04-29T04:52:01;8.43;;;7.63;;
78288;SDS011;67539;48.752;12.922;2023-04-29T04:54:31;8.47;;;7.67;;
78288;SDS011;67539;48.752;12.922;2023-04-29T04:57:11;9.17;;;8.20;;
78288;SDS011;67539;48.752;12.922;2023-04-29T04:59:40;8.90;;;8.00;;
78288;SDS011;67539;48.752;12.922;2023-04-29T05:02:08;8.50;;;7.70;;
78288;SDS011;67539;48.752;12.922;2023-04-29T05:04:37;8.23;;;7.37;;
78288;SDS011;67539;48.752;12.922;2023-04-29T05:07:05;8.50;;;7.80;;
78288;SDS011;67539;48.752;12.922;2023-04-29T05:09:53;7.77;;;7.07;;
78288;SDS011;67539;48.752;12.922;2023-04-29T05:12:21;9.40;;;8.40;;
78288;SDS011;67539;48.752;12.922;2023-04-29T05:14:52;8.80;;;8.00;;
78288;SDS011;67539;48.752;12.922;2023-04-29T05:17:20;9.10;;;8.20;;
78288;SDS011;67539;48.752;12.922;2023-04-29T05:19:49;9.17;;;8.27;;
78288;SDS011;67539;48.752;12.922;2023-04-29T05:22:18;10.50;;;9.00;;
78288;SDS011;67539;48.752;12.922;2023-04-29T05:24:46;9.57;;;8.77;;
78288;SDS011;67539;48.752;12.922;2023-04-29T05:27:17;8.43;;;7.60;;
78288;SDS011;67539;48.752;12.922;2023-04-29T05:29:45;9.23;;;8.27;;
78288;SDS011;67539;48.752;12.922;2023-04-29T05:32:13;8.33;;;7.53;;
78288;SDS011;67539;48.752;12.922;2023-04-29T05:34:42;8.00;;;7.30;;
78288;SDS011;67539;48.752;12.922;2023-04-29T05:37:10;8.20;;;7.40;;
78288;SDS011;67539;48.752;12.922;2023-04-29T05:39:55;9.03;;;8.13;;
78288;SDS011;67539;48.752;12.922;2023-04-29T05:42:25;11.53;;;9.57;;
78288;SDS011;67539;48.752;12.922;2023-04-29T05:44:53;13.23;;;9.20;;
78288;SDS011;67539;48.752;12.922;2023-04-29T05:47:22;15.73;;;10.10;;
78288;SDS011;67539;48.752;12.922;2023-04-29T05:49:50;21.17;;;11.37;;
78288;SDS011;67539;48.752;12.922;2023-04-29T05:52:18;15.40;;;10.03;;
78288;SDS011;67539;48.752;12.922;2023-04-29T05:54:48;14.73;;;9.50;;
78288;SDS011;67539;48.752;12.922;2023-04-29T05:57:16;18.83;;;11.83;;
78288;SDS011;67539;48.752;12.922;2023-04-29T05:59:45;20.30;;;12.63;;
78288;SDS011;67539;48.752;12.922;2023-04-29T06:02:14;19.77;;;11.40;;
78288;SDS011;67539;48.752;12.922;2023-04-29T06:04:42;13.90;;;10.73;;
78288;SDS011;67539;48.752;12.922;2023-04-29T06:07:39;20.50;;;12.13;;
78288;SDS011;67539;48.752;12.922;2023-04-29T06:10:29;17.73;;;10.80;;
78288;SDS011;67539;48.752;12.922;2023-04-29T06:12:58;17.50;;;11.90;;
78288;SDS011;67539;48.752;12.922;2023-04-29T06:15:27;15.53;;;11.10;;
78288;SDS011;67539;48.752;12.922;2023-04-29T06:17:56;15.60;;;10.77;;
78288;SDS011;67539;48.752;12.922;2023-04-29T06:20:24;19.17;;;12.67;;
78288;SDS011;67539;48.752;12.922;2023-04-29T06:22:52;15.70;;;12.10;;
78288;SDS011;67539;48.752;12.922;2023-04-29T06:25:20;15.47;;;10.43;;
78288;SDS011;67539;48.752;12.922;2023-04-29T06:27:50;17.57;;;10.93;;
78288;SDS011;67539;48.752;12.922;2023-04-29T06:30:21;15.17;;;11.07;;
78288;SDS011;67539;48.752;12.922;2023-04-29T06:32:54;13.77;;;11.30;;
78288;SDS011;67539;48.752;12.922;2023-04-29T06:35:23;15.90;;;11.10;;
78288;SDS011;67539;48.752;12.922;2023-04-29T06:38:09;14.87;;;12.10;;
78288;SDS011;67539;48.752;12.922;2023-04-29T06:40:56;17.17;;;11.17;;
78288;SDS011;67539;48.752;12.922;2023-04-29T06:43:44;13.33;;;10.17;;
78288;SDS011;67539;48.752;12.922;2023-04-29T06:46:34;20.03;;;12.17;;
78288;SDS011;67539;48.752;12.922;2023-04-29T06:49:12;17.77;;;12.60;;
78288;SDS011;67539;48.752;12.922;2023-04-29T06:51:40;17.83;;;11.27;;
78288;SDS011;67539;48.752;12.922;2023-04-29T06:54:09;14.93;;;11.10;;
78288;SDS011;67539;48.752;12.922;2023-04-29T06:56:37;19.20;;;13.30;;
78288;SDS011;67539;48.752;12.922;2023-04-29T06:59:05;18.17;;;12.53;;
78288;SDS011;67539;48.752;12.922;2023-04-29T07:01:34;17.47;;;11.80;;
78288;SDS011;67539;48.752;12.922;2023-04-29T07:04:02;17.40;;;12.27;;
78288;SDS011;67539;48.752;12.922;2023-04-29T07:06:32;25.37;;;14.20;;
78288;SDS011;67539;48.752;12.922;2023-04-29T07:09:01;19.70;;;13.67;;
78288;SDS011;67539;48.752;12.922;2023-04-29T07:11:29;18.80;;;13.90;;
78288;SDS011;67539;48.752;12.922;2023-04-29T07:13:57;26.60;;;15.37;;
78288;SDS011;67539;48.752;12.922;2023-04-29T07:16:28;19.90;;;13.93;;
78288;SDS011;67539;48.752;12.922;2023-04-29T07:18:56;18.43;;;13.27;;
78288;SDS011;67539;48.752;12.922;2023-04-29T07:21:26;19.43;;;14.43;;
78288;SDS011;67539;48.752;12.922;2023-04-29T07:23:58;23.53;;;15.07;;
78288;SDS011;67539;48.752;12.922;2023-04-29T07:26:27;24.17;;;14.77;;
78288;SDS011;67539;48.752;12.922;2023-04-29T07:28:55;17.80;;;13.40;;
78288;SDS011;67539;48.752;12.922;2023-04-29T07:31:23;21.20;;;14.07;;
78288;SDS011;67539;48.752;12.922;2023-04-29T07:33:53;17.90;;;12.73;;
78288;SDS011;67539;48.752;12.922;2023-04-29T07:36:23;18.57;;;12.63;;
78288;SDS011;67539;48.752;12.922;2023-04-29T07:38:54;15.90;;;12.10;;
78288;SDS011;67539;48.752;12.922;2023-04-29T07:41:24;15.93;;;13.20;;
78288;SDS011;67539;48.752;12.922;2023-04-29T07:43:52;20.50;;;14.57;;
78288;SDS011;67539;48.752;12.922;2023-04-29T07:46:20;18.87;;;12.97;;
78288;SDS011;67539;48.752;12.922;2023-04-29T07:48:49;17.17;;;13.50;;
78288;SDS011;67539;48.752;12.922;2023-04-29T07:51:18;14.17;;;11.27;;
78288;SDS011;67539;48.752;12.922;2023-04-29T07:53:47;15.47;;;12.73;;
78288;SDS011;67539;48.752;12.922;2023-04-29T07:56:16;14.70;;;12.13;;
78288;SDS011;67539;48.752;12.922;2023-04-29T07:58:46;15.53;;;10.90;;
78288;SDS011;67539;48.752;12.922;2023-04-29T08:01:14;14.70;;;11.80;;
78288;SDS011;67539;48.752;12.922;2023-04-29T08:03:43;12.97;;;11.60;;
78288;SDS011;67539;48.752;12.922;2023-04-29T08:06:14;13.80;;;11.53;;
78288;SDS011;67539;48.752;12.922;2023-04-29T08:08:43;16.80;;;11.83;;
78288;SDS011;67539;48.752;12.922;2023-04-29T08:11:15;14.50;;;12.33;;
78288;SDS011;67539;48.752;12.922;2023-04-29T08:13:43;13.57;;;11.10;;
78288;SDS011;67539;48.752;12.922;2023-04-29T08:16:13;14.20;;;11.27;;
78288;SDS011;67539;48.752;12.922;2023-04-29T08:18:41;14.20;;;11.00;;
78288;SDS011;67539;48.752;12.922;2023-04-29T08:21:10;11.13;;;9.93;;
78288;SDS011;67539;48.752;12.922;2023-04-29T08:23:38;9.33;;;8.43;;
78288;SDS011;67539;48.752;12.922;2023-04-29T08:26:06;9.40;;;8.40;;
78288;SDS011;67539;48.752;12.922;2023-04-29T08:28:36;8.00;;;7.20;;
78288;SDS011;67539;48.752;12.922;2023-04-29T08:31:04;10.57;;;8.40;;
78288;SDS011;67539;48.752;12.922;2023-04-29T08:33:34;11.77;;;9.30;;
78288;SDS011;67539;48.752;12.922;2023-04-29T08:36:03;12.90;;;10.53;;
78288;SDS011;67539;48.752;12.922;2023-04-29T08:38:31;12.43;;;11.20;;
78288;SDS011;67539;48.752;12.922;2023-04-29T08:41:00;12.30;;;10.93;;
78288;SDS011;67539;48.752;12.922;2023-04-29T08:43:28;10.03;;;8.00;;
78288;SDS011;67539;48.752;12.922;2023-04-29T08:45:56;16.30;;;9.73;;
78288;SDS011;67539;48.752;12.922;2023-04-29T08:48:25;9.03;;;8.20;;
78288;SDS011;67539;48.752;12.922;2023-04-29T08:50:56;9.37;;;8.47;;
78288;SDS011;67539;48.752;12.922;2023-04-29T08:53:25;17.60;;;11.80;;
78288;SDS011;67539;48.752;12.922;2023-04-29T08:55:54;11.17;;;9.50;;
78288;SDS011;67539;48.752;12.922;2023-04-29T08:58:27;9.00;;;8.20;;
78288;SDS011;67539;48.752;12.922;2023-04-29T09:01:00;9.60;;;8.23;;
78288;SDS011;67539;48.752;12.922;2023-04-29T09:03:30;9.63;;;7.60;;
78288;SDS011;67539;48.752;12.922;2023-04-29T09:06:05;13.67;;;7.40;;
78288;SDS011;67539;48.752;12.922;2023-04-29T09:08:33;9.53;;;8.63;;
78288;SDS011;67539;48.752;12.922;2023-04-29T09:11:02;9.57;;;8.67;;
78288;SDS011;67539;48.752;12.922;2023-04-29T09:13:34;9.13;;;8.23;;
78288;SDS011;67539;48.752;12.922;2023-04-29T09:16:03;9.30;;;8.40;;
78288;SDS011;67539;48.752;12.922;2023-04-29T09:18:44;7.87;;;7.17;;
78288;SDS011;67539;48.752;12.922;2023-04-29T09:21:15;8.50;;;7.40;;
78288;SDS011;67539;48.752;12.922;2023-04-29T09:23:48;7.70;;;6.97;;
78288;SDS011;67539;48.752;12.922;2023-04-29T09:26:17;7.03;;;6.43;;
78288;SDS011;67539;48.752;12.922;2023-04-29T09:28:45;8.10;;;7.40;;
78288;SDS011;67539;48.752;12.922;2023-04-29T09:31:15;8.07;;;7.00;;
78288;SDS011;67539;48.752;12.922;2023-04-29T09:33:55;12.43;;;7.93;;
78288;SDS011;67539;48.752;12.922;2023-04-29T09:39:16;9.60;;;8.40;;
78288;SDS011;67539;48.752;12.922;2023-04-29T09:41:58;8.83;;;7.07;;
78288;SDS011;67539;48.752;12.922;2023-04-29T09:44:29;7.87;;;7.07;;
78288;SDS011;67539;48.752;12.922;2023-04-29T09:47:00;9.30;;;8.30;;
78288;SDS011;67539;48.752;12.922;2023-04-29T09:49:30;7.73;;;7.03;;
78288;SDS011;67539;48.752;12.922;2023-04-29T09:52:03;7.37;;;6.67;;
78288;SDS011;67539;48.752;12.922;2023-04-29T09:54:33;7.13;;;6.53;;
78288;SDS011;67539;48.752;12.922;2023-04-29T09:57:04;8.13;;;7.20;;
78288;SDS011;67539;48.752;12.922;2023-04-29T09:59:33;13.40;;;11.03;;
78288;SDS011;67539;48.752;12.922;2023-04-29T10:02:05;7.93;;;7.23;;
78288;SDS011;67539;48.752;12.922;2023-04-29T10:04:37;8.40;;;7.57;;
78288;SDS011;67539;48.752;12.922;2023-04-29T10:07:10;8.47;;;7.63;;
78288;SDS011;67539;48.752;12.922;2023-04-29T10:09:41;6.77;;;6.17;;
78288;SDS011;67539;48.752;12.922;2023-04-29T10:12:12;8.30;;;7.57;;
78288;SDS011;67539;48.752;12.922;2023-04-29T10:14:44;7.60;;;6.80;;
78288;SDS011;67539;48.752;12.922;2023-04-29T10:17:19;8.23;;;7.43;;
78288;SDS011;67539;48.752;12.922;2023-04-29T10:19:55;9.63;;;7.87;;
78288;SDS011;67539;48.752;12.922;2023-04-29T10:22:35;7.57;;;6.90;;
78288;SDS011;67539;48.752;12.922;2023-04-29T10:25:11;8.40;;;7.60;;
78288;SDS011;67539;48.752;12.922;2023-04-29T10:27:41;7.30;;;6.70;;
78288;SDS011;67539;48.752;12.922;2023-04-29T10:30:11;7.00;;;6.30;;
78288;SDS011;67539;48.752;12.922;2023-04-29T10:32:40;7.60;;;6.90;;
78288;SDS011;67539;48.752;12.922;2023-04-29T10:35:18;7.13;;;6.53;;
78288;SDS011;67539;48.752;12.922;2023-04-29T10:37:50;6.93;;;6.33;;
78288;SDS011;67539;48.752;12.922;2023-04-29T10:40:21;8.97;;;6.37;;
78288;SDS011;67539;48.752;12.922;2023-04-29T10:42:54;6.50;;;6.00;;
78288;SDS011;67539;48.752;12.922;2023-04-29T10:45:23;6.50;;;6.00;;
78288;SDS011;67539;48.752;12.922;2023-04-29T10:48:12;7.87;;;6.43;;
78288;SDS011;67539;48.752;12.922;2023-04-29T10:53:32;6.20;;;5.70;;
78288;SDS011;67539;48.752;12.922;2023-04-29T10:56:05;7.33;;;6.47;;
78288;SDS011;67539;48.752;12.922;2023-04-29T10:58:37;6.67;;;6.07;;
78288;SDS011;67539;48.752;12.922;2023-04-29T11:01:09;7.33;;;6.70;;
78288;SDS011;67539;48.752;12.922;2023-04-29T11:03:52;6.23;;;5.70;;
78288;SDS011;67539;48.752;12.922;2023-04-29T11:06:24;6.60;;;6.10;;
78288;SDS011;67539;48.752;12.922;2023-04-29T11:09:08;6.27;;;5.77;;
78288;SDS011;67539;48.752;12.922;2023-04-29T11:11:39;7.80;;;7.10;;
78288;SDS011;67539;48.752;12.922;2023-04-29T11:14:12;7.13;;;6.43;;
78288;SDS011;67539;48.752;12.922;2023-04-29T11:16:47;7.00;;;6.30;;
78288;SDS011;67539;48.752;12.922;2023-04-29T11:19:19;6.53;;;5.93;;
78288;SDS011;67539;48.752;12.922;2023-04-29T11:21:47;7.27;;;5.40;;
78288;SDS011;67539;48.752;12.922;2023-04-29T11:24:31;7.13;;;6.50;;
78288;SDS011;67539;48.752;12.922;2023-04-29T11:27:01;6.60;;;6.00;;
78288;SDS011;67539;48.752;12.922;2023-04-29T11:29:32;5.90;;;5.40;;
78288;SDS011;67539;48.752;12.922;2023-04-29T11:32:00;5.70;;;5.23;;
78288;SDS011;67539;48.752;12.922;2023-04-29T11:34:28;6.80;;;6.20;;
78288;SDS011;67539;48.752;12.922;2023-04-29T11:36:57;5.77;;;5.27;;
78288;SDS011;67539;48.752;12.922;2023-04-29T11:39:26;7.07;;;6.43;;
78288;SDS011;67539;48.752;12.922;2023-04-29T11:42:03;6.27;;;5.77;;
78288;SDS011;67539;48.752;12.922;2023-04-29T11:44:32;7.63;;;6.93;;
78288;SDS011;67539;48.752;12.922;2023-04-29T11:47:01;7.17;;;6.57;;
78288;SDS011;67539;48.752;12.922;2023-04-29T11:49:30;9.00;;;8.17;;
78288;SDS011;67539;48.752;12.922;2023-04-29T11:51:59;8.37;;;7.47;;
78288;SDS011;67539;48.752;12.922;2023-04-29T11:54:27;9.77;;;7.40;;
78288;SDS011;67539;48.752;12.922;2023-04-29T11:56:57;8.57;;;7.70;;
78288;SDS011;67539;48.752;12.922;2023-04-29T12:15:07;8.87;;;8.03;;
78288;SDS011;67539;48.752;12.922;2023-04-29T12:17:36;36.27;;;32.40;;
78288;SDS011;67539;48.752;12.922;2023-04-29T12:20:06;11.17;;;9.53;;
78288;SDS011;67539;48.752;12.922;2023-04-29T12:22:36;6.90;;;6.30;;
78288;SDS011;67539;48.752;12.922;2023-04-29T12:25:05;5.90;;;5.40;;
78288;SDS011;67539;48.752;12.922;2023-04-29T12:27:34;5.90;;;5.43;;
78288;SDS011;67539;48.752;12.922;2023-04-29T12:30:06;6.17;;;5.50;;
78288;SDS011;67539;48.752;12.922;2023-04-29T12:32:36;6.00;;;5.30;;
78288;SDS011;67539;48.752;12.922;2023-04-29T12:35:05;6.50;;;6.00;;
78288;SDS011;67539;48.752;12.922;2023-04-29T12:37:41;5.63;;;5.23;;
78288;SDS011;67539;48.752;12.922;2023-04-29T12:40:12;5.40;;;4.90;;
78288;SDS011;67539;48.752;12.922;2023-04-29T12:42:42;6.03;;;5.30;;
78288;SDS011;67539;48.752;12.922;2023-04-29T12:45:25;4.97;;;4.67;;
78288;SDS011;67539;48.752;12.922;2023-04-29T12:47:55;4.83;;;4.37;;
78288;SDS011;67539;48.752;12.922;2023-04-29T12:50:30;4.60;;;4.20;;
78288;SDS011;67539;48.752;12.922;2023-04-29T12:52:59;4.80;;;4.40;;
78288;SDS011;67539;48.752;12.922;2023-04-29T12:55:28;4.30;;;4.00;;
78288;SDS011;67539;48.752;12.922;2023-04-29T12:58:00;4.43;;;4.13;;
78288;SDS011;67539;48.752;12.922;2023-04-29T13:00:30;4.97;;;4.57;;
78288;SDS011;67539;48.752;12.922;2023-04-29T13:03:01;5.03;;;4.73;;
78288;SDS011;67539;48.752;12.922;2023-04-29T13:05:30;4.80;;;4.57;;
78288;SDS011;67539;48.752;12.922;2023-04-29T13:07:58;5.80;;;5.40;;
78288;SDS011;67539;48.752;12.922;2023-04-29T13:10:26;5.83;;;5.43;;
78288;SDS011;67539;48.752;12.922;2023-04-29T13:12:54;5.80;;;5.40;;
78288;SDS011;67539;48.752;12.922;2023-04-29T13:15:22;5.17;;;4.77;;
78288;SDS011;67539;48.752;12.922;2023-04-29T13:17:52;5.00;;;4.70;;
78288;SDS011;67539;48.752;12.922;2023-04-29T13:20:21;3.90;;;3.70;;
78288;SDS011;67539;48.752;12.922;2023-04-29T13:22:49;4.00;;;3.70;;
78288;SDS011;67539;48.752;12.922;2023-04-29T13:25:18;4.70;;;4.40;;
78288;SDS011;67539;48.752;12.922;2023-04-29T13:27:47;4.73;;;4.30;;
78288;SDS011;67539;48.752;12.922;2023-04-29T13:30:15;5.10;;;4.77;;
78288;SDS011;67539;48.752;12.922;2023-04-29T13:32:43;5.73;;;5.10;;
78288;SDS011;67539;48.752;12.922;2023-04-29T13:35:22;4.40;;;4.20;;
78288;SDS011;67539;48.752;12.922;2023-04-29T13:37:50;7.67;;;4.20;;
78288;SDS011;67539;48.752;12.922;2023-04-29T13:40:19;4.80;;;4.50;;
78288;SDS011;67539;48.752;12.922;2023-04-29T13:42:47;5.80;;;4.00;;
78288;SDS011;67539;48.752;12.922;2023-04-29T13:45:29;3.70;;;3.60;;
78288;SDS011;67539;48.752;12.922;2023-04-29T13:47:58;3.20;;;3.00;;
78288;SDS011;67539;48.752;12.922;2023-04-29T13:50:30;4.50;;;4.20;;
78288;SDS011;67539;48.752;12.922;2023-04-29T13:53:19;4.70;;;4.30;;
78288;SDS011;67539;48.752;12.922;2023-04-29T13:56:07;3.60;;;3.40;;
78288;SDS011;67539;48.752;12.922;2023-04-29T13:58:38;4.67;;;4.37;;
78288;SDS011;67539;48.752;12.922;2023-04-29T14:01:27;27.97;;;25.10;;
78288;SDS011;67539;48.752;12.922;2023-04-29T14:03:58;10.97;;;10.00;;
78288;SDS011;67539;48.752;12.922;2023-04-29T14:09:30;6.10;;;5.70;;
78288;SDS011;67539;48.752;12.922;2023-04-29T14:11:59;4.83;;;4.40;;
78288;SDS011;67539;48.752;12.922;2023-04-29T14:14:27;4.40;;;4.10;;
78288;SDS011;67539;48.752;12.922;2023-04-29T14:16:55;4.23;;;3.93;;
78288;SDS011;67539;48.752;12.922;2023-04-29T14:19:24;4.40;;;4.00;;
78288;SDS011;67539;48.752;12.922;2023-04-29T14:21:52;3.53;;;3.33;;
78288;SDS011;67539;48.752;12.922;2023-04-29T14:24:20;3.27;;;3.07;;
78288;SDS011;67539;48.752;12.922;2023-04-29T14:26:50;2.83;;;2.63;;
78288;SDS011;67539;48.752;12.922;2023-04-29T14:29:18;3.33;;;3.13;;
78288;SDS011;67539;48.752;12.922;2023-04-29T14:31:47;3.20;;;3.10;;
78288;SDS011;67539;48.752;12.922;2023-04-29T14:34:15;4.00;;;3.70;;
78288;SDS011;67539;48.752;12.922;2023-04-29T14:36:45;2.97;;;2.87;;
78288;SDS011;67539;48.752;12.922;2023-04-29T14:39:13;3.40;;;3.30;;
78288;SDS011;67539;48.752;12.922;2023-04-29T14:41:41;3.40;;;3.30;;
78288;SDS011;67539;48.752;12.922;2023-04-29T14:44:11;3.27;;;3.10;;
78288;SDS011;67539;48.752;12.922;2023-04-29T14:46:39;2.83;;;2.73;;
78288;SDS011;67539;48.752;12.922;2023-04-29T14:49:08;2.33;;;2.23;;
78288;SDS011;67539;48.752;12.922;2023-04-29T14:51:36;2.50;;;2.40;;
78288;SDS011;67539;48.752;12.922;2023-04-29T14:54:04;2.47;;;2.37;;
78288;SDS011;67539;48.752;12.922;2023-04-29T14:56:33;2.40;;;2.30;;
78288;SDS011;67539;48.752;12.922;2023-04-29T14:59:02;2.80;;;2.60;;
78288;SDS011;67539;48.752;12.922;2023-04-29T15:01:34;2.23;;;2.13;;
78288;SDS011;67539;48.752;12.922;2023-04-29T15:04:02;3.07;;;2.87;;
78288;SDS011;67539;48.752;12.922;2023-04-29T15:06:31;2.67;;;2.47;;
78288;SDS011;67539;48.752;12.922;2023-04-29T15:08:59;2.43;;;2.33;;